Time;durP1;ratioP1;P1;durP2;ratioP2;P2;SDS_P1;SDS_P2;PMS_P1;PMS_P2;Temp;Humidity;BMP_temperature;BMP_pressure;BME280_temperature;BME280_humidity;BME280_pressure;Samples;Min_cycle;Max_cycle;Signal;HPM_P1;HPM_P2
2023/09/11 00:00:23;;;;;;;7.32;5.63;;;26.30;91.00;;;;;;4247756;27;20039;-53
2023/09/11 00:02:26;;;;;;;12.60;5.70;;;26.30;90.90;;;;;;4247122;27;20100;-55
2023/09/11 00:04:28;;;;;;;9.52;5.93;;;26.20;91.10;;;;;;4246782;27;20534;-53
2023/09/11 00:06:32;;;;;;;11.57;6.72;;;26.10;91.00;;;;;;4247215;28;20047;-54
2023/09/11 00:08:35;;;;;;;9.75;6.30;;;26.10;91.30;;;;;;4247090;27;20051;-52
2023/09/11 00:10:37;;;;;;;8.65;6.82;;;26.00;91.30;;;;;;4246961;28;20063;-53
2023/09/11 00:12:39;;;;;;;8.23;5.53;;;26.00;91.30;;;;;;4229073;28;20382;-53
2023/09/11 00:14:41;;;;;;;8.18;5.93;;;26.00;91.30;;;;;;4246558;28;20039;-54
2023/09/11 00:16:43;;;;;;;8.68;5.60;;;26.00;91.40;;;;;;4247108;28;20491;-53
2023/09/11 00:18:46;;;;;;;11.82;6.70;;;26.00;91.40;;;;;;4247551;28;20132;-53
2023/09/11 00:20:48;;;;;;;11.57;6.22;;;25.90;91.50;;;;;;4246910;28;20050;-54
2023/09/11 00:22:52;;;;;;;7.97;5.70;;;25.90;91.50;;;;;;4247312;28;20035;-54
2023/09/11 00:24:54;;;;;;;13.30;6.32;;;25.90;91.60;;;;;;4245806;28;20096;-54
2023/09/11 00:26:56;;;;;;;10.55;6.18;;;25.90;91.50;;;;;;4246688;28;20461;-52
2023/09/11 00:28:58;;;;;;;9.32;5.80;;;25.90;91.60;;;;;;4246841;28;20047;-53
2023/09/11 00:31:00;;;;;;;10.45;6.55;;;25.80;91.50;;;;;;4248377;28;20128;-55
2023/09/11 00:33:03;;;;;;;11.27;6.60;;;25.80;91.50;;;;;;4248708;28;20043;-56
2023/09/11 00:35:05;;;;;;;13.50;6.72;;;25.80;91.50;;;;;;4248456;28;20069;-54
2023/09/11 00:37:08;;;;;;;9.75;5.78;;;25.80;92.00;;;;;;4247450;28;20042;-54
2023/09/11 00:39:12;;;;;;;14.82;5.72;;;25.70;91.40;;;;;;4246935;28;20353;-53
2023/09/11 00:41:14;;;;;;;8.10;5.95;;;25.70;91.30;;;;;;4246979;28;20047;-57
2023/09/11 00:43:16;;;;;;;9.30;5.40;;;25.70;91.40;;;;;;4246711;28;20438;-52
2023/09/11 00:45:18;;;;;;;10.80;5.25;;;25.70;91.30;;;;;;4246154;28;20407;-54
2023/09/11 00:47:20;;;;;;;6.85;4.68;;;25.60;91.30;;;;;;4246863;28;20134;-54
2023/09/11 00:49:23;;;;;;;6.35;5.22;;;25.60;91.30;;;;;;4246798;28;20089;-59
2023/09/11 00:51:25;;;;;;;8.52;5.20;;;25.60;91.40;;;;;;4246931;28;20051;-54
2023/09/11 00:53:28;;;;;;;8.98;5.93;;;25.60;91.40;;;;;;4247142;28;20519;-54
2023/09/11 00:55:32;;;;;;;10.43;5.82;;;25.50;91.40;;;;;;4230152;28;20471;-53
2023/09/11 00:57:34;;;;;;;6.97;5.28;;;25.50;91.40;;;;;;4247232;28;20064;-54
2023/09/11 00:59:36;;;;;;;9.20;6.28;;;25.40;91.40;;;;;;4246867;28;20047;-54
2023/09/11 01:01:41;;;;;;;12.13;5.78;;;25.40;91.50;;;;;;4246854;28;20171;-54
2023/09/11 01:03:44;;;;;;;8.73;5.35;;;25.40;91.50;;;;;;4245992;28;20047;-54
2023/09/11 01:05:48;;;;;;;10.10;5.60;;;25.40;91.60;;;;;;4246038;28;20122;-53
2023/09/11 01:07:50;;;;;;;12.82;5.90;;;25.30;91.60;;;;;;4249378;28;20035;-55
2023/09/11 01:09:52;;;;;;;7.53;5.65;;;25.30;91.70;;;;;;4247957;28;20039;-54
2023/09/11 01:11:55;;;;;;;10.30;5.63;;;25.20;91.80;;;;;;4246846;28;20497;-54
2023/09/11 01:13:58;;;;;;;9.63;5.25;;;25.20;91.90;;;;;;4246276;28;20108;-54
2023/09/11 01:16:06;;;;;;;8.77;6.15;;;25.20;91.80;;;;;;4245876;28;20126;-54
2023/09/11 01:18:14;;;;;;;6.72;5.05;;;25.20;92.10;;;;;;4246385;28;20043;-52
2023/09/11 01:21:06;;;;;;;7.57;5.80;;;25.20;91.70;;;;;;4246962;27;20501;-53
2023/09/11 01:23:30;;;;;;;8.70;5.75;;;25.10;92.10;;;;;;4163416;28;20123;-54
2023/09/11 01:25:59;;;;;;;6.00;5.00;;;25.10;92.00;;;;;;4163060;28;20554;-56
2023/09/11 01:28:20;;;;;;;8.18;5.72;;;25.10;92.00;;;;;;4163618;28;20463;-54
2023/09/11 01:30:25;;;;;;;13.15;6.05;;;25.00;92.00;;;;;;4163753;28;20045;-54
2023/09/11 01:32:28;;;;;;;8.13;5.10;;;25.00;92.10;;;;;;4163802;28;20467;-54
2023/09/11 01:34:31;;;;;;;8.20;5.32;;;24.90;92.10;;;;;;4163363;28;20081;-55
2023/09/11 01:36:33;;;;;;;8.60;6.38;;;24.90;92.20;;;;;;4162740;28;20060;-56
2023/09/11 01:38:35;;;;;;;9.45;6.30;;;25.00;92.00;;;;;;4146976;28;20053;-54
2023/09/11 01:40:41;;;;;;;12.07;5.65;;;24.90;92.10;;;;;;4163511;28;20056;-53
2023/09/11 01:42:51;;;;;;;9.68;5.32;;;24.90;92.30;;;;;;4163516;28;20049;-53
2023/09/11 01:44:55;;;;;;;11.73;5.80;;;24.90;92.40;;;;;;4162463;28;20136;-54
2023/09/11 01:47:00;;;;;;;7.95;5.65;;;24.80;92.10;;;;;;4163572;28;20072;-54
2023/09/11 01:49:05;;;;;;;11.02;6.15;;;24.90;92.20;;;;;;4163512;28;20061;-55
2023/09/11 01:51:07;;;;;;;;;;;24.80;92.00;;;;;;4164205;28;20041;-53
2023/09/11 01:53:09;;;;;;;14.00;6.00;;;24.80;92.10;;;;;;4148159;28;19927;-52
2023/09/11 01:55:11;;;;;;;8.20;5.75;;;24.70;92.10;;;;;;4162346;28;20092;-53
2023/09/11 01:57:13;;;;;;;7.65;5.53;;;24.70;92.00;;;;;;4186489;28;20087;-52
2023/09/11 01:59:15;;;;;;;8.45;5.13;;;24.70;92.10;;;;;;4231788;28;20046;-54
2023/09/11 02:01:17;;;;;;;10.68;5.78;;;24.70;92.00;;;;;;4232123;28;20057;-56
2023/09/11 02:03:21;;;;;;;12.38;5.60;;;24.70;92.10;;;;;;4232444;28;20412;-53
2023/09/11 02:05:23;;;;;;;9.85;5.90;;;24.70;92.00;;;;;;4230692;28;20043;-54
2023/09/11 02:07:25;;;;;;;7.22;5.25;;;24.60;92.00;;;;;;4231423;28;20044;-53
2023/09/11 02:09:27;;;;;;;8.15;5.43;;;24.60;92.00;;;;;;4231536;28;20040;-53
2023/09/11 02:11:29;;;;;;;9.68;5.63;;;24.60;92.00;;;;;;4232118;28;20070;-59
2023/09/11 02:13:31;;;;;;;8.13;5.90;;;24.60;92.00;;;;;;4232009;28;20122;-55
2023/09/11 02:15:33;;;;;;;9.57;6.20;;;24.60;92.00;;;;;;4231105;28;20048;-55
2023/09/11 02:17:35;;;;;;;7.03;5.63;;;24.60;92.10;;;;;;4231650;28;20040;-58
2023/09/11 02:19:39;;;;;;;9.88;5.70;;;24.50;92.10;;;;;;4230842;28;20066;-58
2023/09/11 02:21:41;;;;;;;10.07;6.00;;;24.50;92.00;;;;;;4232146;28;20040;-56
2023/09/11 02:23:43;;;;;;;15.63;6.25;;;24.50;92.00;;;;;;4232530;28;20082;-60
2023/09/11 02:25:47;;;;;;;9.27;5.65;;;24.50;92.00;;;;;;4230836;28;20044;-59
2023/09/11 02:27:49;;;;;;;;;;;24.50;92.10;;;;;;4232632;27;20051;-55
2023/09/11 02:29:51;;;;;;;15.73;6.28;;;24.50;92.20;;;;;;4233371;28;19920;-54
2023/09/11 02:31:53;;;;;;;10.25;5.47;;;24.40;92.30;;;;;;4231491;28;20047;-54
2023/09/11 02:33:56;;;;;;;13.23;5.78;;;24.40;92.10;;;;;;4231695;28;20047;-60
2023/09/11 02:35:59;;;;;;;9.48;6.05;;;24.40;92.10;;;;;;4229916;28;20051;-54
2023/09/11 02:38:01;;;;;;;11.60;5.60;;;24.40;92.20;;;;;;4231663;28;20047;-54
2023/09/11 02:40:06;;;;;;;10.75;6.47;;;24.40;92.30;;;;;;4231013;28;20043;-53
2023/09/11 02:42:08;;;;;;;8.15;5.47;;;24.40;92.20;;;;;;4227387;28;20044;-53
2023/09/11 02:44:10;;;;;;;9.90;5.70;;;24.50;92.30;;;;;;4231138;28;20050;-53
2023/09/11 02:46:12;;;;;;;9.02;6.15;;;24.40;92.20;;;;;;4229963;28;20171;-54
2023/09/11 02:48:14;;;;;;;9.32;5.80;;;24.40;92.30;;;;;;4236262;27;20528;-53
2023/09/11 02:50:16;;;;;;;13.32;5.95;;;24.40;92.20;;;;;;4247664;27;20066;-54
2023/09/11 02:52:20;;;;;;;10.85;5.50;;;24.40;92.10;;;;;;4247770;27;20510;-53
2023/09/11 02:54:22;;;;;;;8.55;5.60;;;24.40;92.50;;;;;;4248104;27;20073;-62
2023/09/11 02:56:24;;;;;;;13.68;5.85;;;24.40;92.10;;;;;;4247022;27;20043;-54
2023/09/11 02:58:27;;;;;;;13.77;6.32;;;24.40;92.20;;;;;;4248075;27;20050;-54
2023/09/11 03:00:29;;;;;;;7.13;5.68;;;24.30;92.10;;;;;;4248121;27;20039;-53
2023/09/11 03:02:31;;;;;;;9.23;5.63;;;24.30;91.90;;;;;;4247617;27;20152;-53
2023/09/11 03:04:34;;;;;;;9.75;6.18;;;24.30;92.00;;;;;;4247453;27;20046;-53
2023/09/11 03:06:36;;;;;;;13.85;6.82;;;24.20;91.90;;;;;;4246626;27;20043;-53
2023/09/11 03:08:39;;;;;;;10.98;6.10;;;24.30;91.90;;;;;;4247991;27;20066;-53
2023/09/11 03:10:41;;;;;;;11.38;5.35;;;24.20;91.80;;;;;;4247912;27;20043;-53
2023/09/11 03:12:43;;;;;;;8.25;5.55;;;24.20;91.90;;;;;;4247595;27;20043;-53
2023/09/11 03:14:46;;;;;;;13.77;5.60;;;24.20;91.80;;;;;;4247473;27;20396;-53
2023/09/11 03:16:48;;;;;;;10.57;5.55;;;24.10;91.90;;;;;;4246501;27;20088;-53
2023/09/11 03:18:50;;;;;;;10.02;6.47;;;24.10;91.90;;;;;;4247187;27;20088;-54
2023/09/11 03:20:54;;;;;;;11.70;6.10;;;24.10;91.90;;;;;;4247702;27;20366;-58
2023/09/11 03:22:58;;;;;;;8.88;6.00;;;24.00;92.00;;;;;;4247328;27;20125;-53
2023/09/11 03:25:03;;;;;;;13.77;6.05;;;24.00;92.00;;;;;;4246677;27;20047;-54
2023/09/11 03:27:05;;;;;;;9.90;5.47;;;24.00;92.00;;;;;;4247231;27;20070;-53
2023/09/11 03:29:07;;;;;;;7.90;5.35;;;23.90;92.00;;;;;;4247224;27;20039;-53
2023/09/11 03:31:09;;;;;;;8.45;5.05;;;23.90;92.00;;;;;;4247373;27;20043;-54
2023/09/11 03:33:12;;;;;;;11.15;6.20;;;23.90;92.00;;;;;;4247092;27;20520;-53
2023/09/11 03:35:14;;;;;;;9.95;5.82;;;23.90;92.00;;;;;;4246667;27;20071;-53
2023/09/11 03:37:16;;;;;;;12.02;5.78;;;23.90;92.00;;;;;;4247084;27;20049;-55
2023/09/11 03:39:18;;;;;;;9.75;6.07;;;23.90;92.10;;;;;;4247360;27;20463;-53
2023/09/11 03:41:22;;;;;;;11.48;5.75;;;23.90;92.00;;;;;;4247694;27;20047;-57
2023/09/11 03:43:24;;;;;;;9.57;5.88;;;23.90;92.10;;;;;;4246270;27;20043;-53
2023/09/11 03:45:27;;;;;;;12.10;6.28;;;23.90;92.00;;;;;;4246405;27;20160;-55
2023/09/11 03:47:29;;;;;;;8.40;5.43;;;23.80;92.00;;;;;;4246604;27;20840;-54
2023/09/11 03:49:31;;;;;;;15.18;6.15;;;23.80;92.00;;;;;;4246916;27;20096;-54
2023/09/11 03:51:33;;;;;;;11.43;5.55;;;23.80;92.00;;;;;;4247057;27;20073;-53
2023/09/11 03:53:42;;;;;;;10.30;5.30;;;23.80;92.00;;;;;;4246855;27;20047;-53
2023/09/11 03:55:45;;;;;;;9.50;5.60;;;23.80;92.00;;;;;;4227935;28;20109;-53
2023/09/11 03:57:49;;;;;;;9.32;6.05;;;23.80;92.00;;;;;;4214350;28;20071;-54
2023/09/11 03:59:51;;;;;;;9.35;5.70;;;23.90;91.90;;;;;;4247058;27;20127;-54
2023/09/11 04:01:53;;;;;;;8.65;5.75;;;23.80;92.00;;;;;;4246748;27;20053;-54
2023/09/11 04:03:55;;;;;;;11.05;6.70;;;23.80;92.00;;;;;;4228564;28;20048;-54
2023/09/11 04:05:57;;;;;;;13.23;6.30;;;23.70;92.00;;;;;;4239729;28;20047;-54
2023/09/11 04:08:00;;;;;;;8.00;5.47;;;23.70;92.00;;;;;;4247044;28;20043;-63
2023/09/11 04:10:02;;;;;;;9.52;6.05;;;23.70;92.00;;;;;;4247193;28;20039;-57
2023/09/11 04:12:05;;;;;;;11.73;6.30;;;23.70;92.00;;;;;;4247233;28;20074;-53
2023/09/11 04:14:08;;;;;;;11.02;5.53;;;23.60;92.00;;;;;;4246680;28;20047;-53
2023/09/11 04:16:11;;;;;;;9.65;5.53;;;23.60;92.10;;;;;;4245306;28;20401;-54
2023/09/11 04:18:13;;;;;;;8.18;5.82;;;23.60;92.10;;;;;;4246781;28;20114;-54
2023/09/11 04:20:15;;;;;;;11.15;6.13;;;23.60;92.20;;;;;;4246600;28;20493;-52
2023/09/11 04:22:17;;;;;;;10.98;6.28;;;23.50;92.20;;;;;;4246688;28;20067;-53
2023/09/11 04:24:19;;;;;;;13.10;6.53;;;23.50;92.30;;;;;;4246621;28;20102;-55
2023/09/11 04:26:21;;;;;;;11.65;6.40;;;23.50;92.30;;;;;;4245637;28;20043;-54
2023/09/11 04:28:24;;;;;;;13.07;5.60;;;23.40;92.40;;;;;;4246713;28;20047;-53
2023/09/11 04:30:27;;;;;;;13.98;5.88;;;23.40;92.50;;;;;;4246668;28;20384;-52
2023/09/11 04:32:30;;;;;;;13.45;6.57;;;23.30;92.60;;;;;;4246344;28;20047;-53
2023/09/11 04:34:32;;;;;;;14.43;6.13;;;23.20;92.60;;;;;;4246861;28;20074;-68
2023/09/11 04:36:35;;;;;;;10.18;6.25;;;23.30;92.50;;;;;;4245725;28;20077;-53
2023/09/11 04:38:37;;;;;;;16.75;6.97;;;23.30;92.50;;;;;;4246795;28;20047;-53
2023/09/11 04:40:39;;;;;;;16.52;7.65;;;23.30;92.50;;;;;;4246744;28;20460;-53
2023/09/11 04:42:43;;;;;;;20.48;8.02;;;23.30;92.50;;;;;;4246949;28;20043;-54
2023/09/11 04:44:45;;;;;;;12.95;7.10;;;23.30;92.60;;;;;;4246678;28;20440;-54
2023/09/11 04:46:49;;;;;;;14.52;7.55;;;23.30;92.60;;;;;;4245340;28;20189;-53
2023/09/11 04:48:51;;;;;;;17.27;7.47;;;23.30;92.60;;;;;;4246676;28;20051;-56
2023/09/11 04:50:54;;;;;;;14.65;8.32;;;23.30;92.60;;;;;;4246563;28;20244;-53
2023/09/11 04:52:56;;;;;;;25.55;8.80;;;23.30;92.50;;;;;;4246870;28;20489;-54
2023/09/11 04:54:58;;;;;;;17.52;8.63;;;23.30;92.40;;;;;;4247880;27;20046;-53
2023/09/11 04:57:01;;;;;;;24.33;9.55;;;23.30;92.50;;;;;;4248819;27;20106;-57
2023/09/11 04:59:03;;;;;;;15.00;8.73;;;23.30;92.50;;;;;;4249983;27;20389;-61
2023/09/11 05:01:05;;;;;;;16.08;7.65;;;23.30;92.60;;;;;;4249487;27;20090;-55
2023/09/11 05:03:08;;;;;;;14.50;8.25;;;23.30;92.60;;;;;;4231802;28;20428;-54
2023/09/11 05:05:11;;;;;;;15.05;7.85;;;23.30;92.70;;;;;;4249421;27;20126;-54
2023/09/11 05:07:15;;;;;;;15.45;7.70;;;23.20;92.70;;;;;;4249177;27;20066;-53
2023/09/11 05:09:17;;;;;;;16.65;5.93;;;23.20;92.80;;;;;;4249652;27;20053;-54
2023/09/11 05:11:19;;;;;;;10.27;6.07;;;23.20;92.90;;;;;;4249687;27;20118;-54
2023/09/11 05:13:21;;;;;;;15.23;7.53;;;23.30;92.80;;;;;;4249695;27;20051;-54
2023/09/11 05:15:23;;;;;;;18.27;7.07;;;23.30;92.70;;;;;;4248253;27;20048;-55
2023/09/11 05:17:25;;;;;;;14.45;7.20;;;23.30;92.80;;;;;;4249276;27;20142;-54
2023/09/11 05:19:29;;;;;;;18.45;7.63;;;23.30;92.80;;;;;;4249408;27;20051;-54
2023/09/11 05:21:32;;;;;;;22.77;8.07;;;23.30;92.80;;;;;;4249158;27;20506;-53
2023/09/11 05:23:34;;;;;;;26.27;8.07;;;23.30;92.90;;;;;;4249658;27;20095;-53
2023/09/11 05:25:36;;;;;;;15.05;7.18;;;23.20;92.90;;;;;;4248572;27;20051;-54
2023/09/11 05:27:39;;;;;;;12.35;7.05;;;23.20;93.00;;;;;;4249076;27;20047;-54
2023/09/11 05:29:42;;;;;;;12.43;7.03;;;23.20;93.00;;;;;;4249189;27;20050;-53
2023/09/11 05:31:44;;;;;;;15.00;7.18;;;23.20;93.00;;;;;;4249154;27;20046;-53
2023/09/11 05:33:46;;;;;;;11.50;6.13;;;23.20;93.00;;;;;;4249225;27;20510;-52
2023/09/11 05:35:49;;;;;;;19.58;6.45;;;23.20;93.00;;;;;;4248475;27;20042;-54
2023/09/11 05:37:52;;;;;;;16.77;7.55;;;23.20;93.10;;;;;;4230792;28;20052;-54
2023/09/11 05:39:54;;;;;;;18.45;8.43;;;23.20;93.10;;;;;;4249373;27;20100;-53
2023/09/11 05:41:56;;;;;;;17.58;7.32;;;23.20;93.10;;;;;;4248941;27;20950;-53
2023/09/11 05:43:58;;;;;;;12.63;6.63;;;23.20;93.20;;;;;;4248887;27;20047;-55
2023/09/11 05:46:00;;;;;;;14.95;6.85;;;23.20;93.20;;;;;;4230218;28;20040;-54
2023/09/11 05:48:06;;;;;;;10.07;6.75;;;23.10;93.30;;;;;;4248823;27;20051;-59
2023/09/11 05:50:09;;;;;;;23.35;7.35;;;23.20;93.30;;;;;;4249228;27;20092;-54
2023/09/11 05:52:12;;;;;;;13.32;7.13;;;23.20;93.30;;;;;;4248876;27;20062;-53
2023/09/11 05:54:15;;;;;;;11.48;6.65;;;23.10;93.30;;;;;;4249064;27;20410;-54
2023/09/11 05:56:18;;;;;;;15.93;7.53;;;23.20;93.20;;;;;;4248125;27;20099;-57
2023/09/11 05:58:20;;;;;;;18.98;6.93;;;23.20;93.10;;;;;;4248520;27;20499;-53
2023/09/11 06:00:24;;;;;;;13.00;6.55;;;23.20;93.20;;;;;;4248786;27;20130;-54
2023/09/11 06:02:26;;;;;;;32.40;8.93;;;23.20;93.10;;;;;;4248806;27;20062;-54
2023/09/11 06:04:30;;;;;;;23.80;7.45;;;23.30;93.10;;;;;;4248905;27;20042;-53
2023/09/11 06:06:34;;;;;;;22.48;7.97;;;23.20;93.20;;;;;;4247333;27;20046;-53
2023/09/11 06:08:37;;;;;;;13.73;6.25;;;23.20;93.20;;;;;;4248512;27;20476;-53
2023/09/11 06:10:40;;;;;;;19.13;7.38;;;23.20;93.30;;;;;;4248799;27;20111;-54
2023/09/11 06:12:42;;;;;;;15.50;7.07;;;23.30;93.30;;;;;;4248090;27;20042;-53
2023/09/11 06:14:44;;;;;;;22.80;7.60;;;23.30;93.40;;;;;;4248853;27;20044;-59
2023/09/11 06:16:46;;;;;;;19.23;6.85;;;23.30;93.30;;;;;;4247417;27;20120;-54
2023/09/11 06:18:49;;;;;;;18.30;7.20;;;23.30;93.30;;;;;;4248437;27;20043;-54
2023/09/11 06:20:52;;;;;;;21.77;8.55;;;23.30;93.20;;;;;;4248870;27;20095;-54
2023/09/11 06:22:55;;;;;;;19.90;7.38;;;23.30;93.20;;;;;;4248808;27;20035;-53
2023/09/11 06:24:59;;;;;;;19.50;7.57;;;23.30;93.20;;;;;;4248917;27;20114;-54
2023/09/11 06:27:06;;;;;;;22.88;7.68;;;23.30;93.30;;;;;;4247692;27;20043;-57
2023/09/11 06:29:08;;;;;;;20.83;7.65;;;23.30;93.20;;;;;;4248504;27;20111;-59
2023/09/11 06:31:10;;;;;;;30.98;6.97;;;23.30;93.20;;;;;;4248745;27;20042;-54
2023/09/11 06:33:12;;;;;;;18.85;8.07;;;23.30;93.20;;;;;;4248341;27;20435;-54
2023/09/11 06:35:17;;;;;;;18.83;6.85;;;23.40;93.20;;;;;;4248363;27;20087;-53
2023/09/11 06:37:19;;;;;;;18.63;6.72;;;23.40;93.20;;;;;;4247615;27;20047;-52
2023/09/11 06:39:21;;;;;;;17.25;6.25;;;23.40;93.20;;;;;;4248217;27;20130;-53
2023/09/11 06:41:25;;;;;;;13.40;5.47;;;23.40;93.10;;;;;;4247839;27;20070;-56
2023/09/11 06:43:26;;;;;;;17.42;5.85;;;23.50;93.20;;;;;;4229863;28;20386;-53
2023/09/11 06:45:33;;;;;;;13.35;5.90;;;23.50;93.10;;;;;;4246624;27;20043;-54
2023/09/11 06:47:35;;;;;;;28.02;7.10;;;23.50;93.00;;;;;;4247458;27;20043;-52
2023/09/11 06:49:37;;;;;;;36.10;8.50;;;23.60;92.90;;;;;;4247731;27;20059;-52
2023/09/11 06:51:39;;;;;;;45.08;8.80;;;23.60;92.90;;;;;;4248299;27;20495;-54
2023/09/11 06:53:41;;;;;;;38.55;8.57;;;23.60;92.90;;;;;;4247686;27;20165;-54
2023/09/11 06:55:43;;;;;;;22.27;6.90;;;23.60;92.90;;;;;;4246832;27;20043;-54
2023/09/11 06:57:56;;;;;;;23.58;7.22;;;23.60;92.80;;;;;;4247891;27;20043;-53
2023/09/11 06:59:58;;;;;;;15.63;7.57;;;23.70;92.50;;;;;;4248129;27;20055;-53
2023/09/11 07:02:00;;;;;;;18.90;7.25;;;23.70;92.50;;;;;;4229580;28;20541;-57
2023/09/11 07:04:03;;;;;;;20.25;8.25;;;23.80;92.50;;;;;;4247750;27;20104;-53
2023/09/11 07:06:05;;;;;;;24.60;7.95;;;23.80;92.50;;;;;;4247068;27;20070;-53
2023/09/11 07:08:07;;;;;;;36.00;9.15;;;23.70;92.80;;;;;;4247561;27;20144;-57
2023/09/11 07:10:11;;;;;;;34.35;7.72;;;23.80;92.60;;;;;;4247090;27;20035;-54
2023/09/11 07:12:20;;;;;;;19.10;6.97;;;23.80;92.50;;;;;;4247972;27;20050;-53
2023/09/11 07:14:26;;;;;;;45.35;8.15;;;23.80;92.60;;;;;;4247477;27;20047;-54
2023/09/11 07:16:28;;;;;;;20.42;7.07;;;23.80;92.50;;;;;;4246745;27;20483;-62
2023/09/11 07:18:31;;;;;;;19.60;7.30;;;23.80;92.40;;;;;;4246710;27;20043;-53
2023/09/11 07:20:33;;;;;;;19.17;7.45;;;23.90;92.30;;;;;;4247448;27;20567;-52
2023/09/11 07:22:36;;;;;;;14.05;6.60;;;23.90;92.40;;;;;;4247748;27;20073;-54
2023/09/11 07:24:38;;;;;;;17.85;6.65;;;24.00;92.40;;;;;;4247284;27;20122;-53
2023/09/11 07:26:41;;;;;;;17.88;7.00;;;24.00;92.30;;;;;;4246483;27;20055;-54
2023/09/11 07:28:53;;;;;;;19.08;6.78;;;24.10;92.30;;;;;;4248624;27;20051;-54
2023/09/11 07:30:56;;;;;;;14.45;6.68;;;24.20;92.20;;;;;;4248741;27;20039;-64
2023/09/11 07:32:58;;;;;;;15.20;6.78;;;24.20;92.20;;;;;;4248477;27;20047;-53
2023/09/11 07:35:01;;;;;;;10.00;5.93;;;24.20;92.10;;;;;;4247435;27;20077;-54
2023/09/11 07:37:03;;;;;;;9.18;5.60;;;24.20;92.10;;;;;;4246543;27;20108;-53
2023/09/11 07:39:05;;;;;;;10.85;5.10;;;24.30;92.10;;;;;;4247055;27;20043;-53
2023/09/11 07:41:07;;;;;;;17.45;7.07;;;24.40;92.00;;;;;;4247381;27;20412;-53
2023/09/11 07:43:11;;;;;;;15.07;5.82;;;24.50;92.00;;;;;;4247269;27;20122;-53
2023/09/11 07:45:13;;;;;;;35.42;8.35;;;24.60;91.90;;;;;;4247795;27;20616;-53
2023/09/11 07:47:16;;;;;;;37.50;7.38;;;24.70;91.90;;;;;;4246538;27;20051;-52
2023/09/11 07:49:18;;;;;;;21.25;6.30;;;24.70;91.60;;;;;;4247214;27;20051;-53
2023/09/11 07:51:20;;;;;;;15.23;6.20;;;24.70;91.60;;;;;;4247328;27;20081;-54
2023/09/11 07:53:23;;;;;;;17.30;6.45;;;24.80;91.50;;;;;;4247454;27;20043;-53
2023/09/11 07:55:25;;;;;;;15.75;5.88;;;24.90;91.40;;;;;;4247259;27;20046;-53
2023/09/11 07:57:30;;;;;;;13.07;6.03;;;24.90;91.30;;;;;;4246220;27;20043;-53
2023/09/11 07:59:32;;;;;;;16.08;6.65;;;25.00;91.30;;;;;;4247315;27;20051;-54
2023/09/11 08:01:34;;;;;;;18.00;6.18;;;25.20;91.10;;;;;;4247188;27;20047;-53
2023/09/11 08:03:38;;;;;;;21.70;7.43;;;25.20;90.90;;;;;;4247264;27;20043;-53
2023/09/11 08:05:40;;;;;;;24.00;7.05;;;25.20;90.70;;;;;;4247373;27;20067;-53
2023/09/11 08:07:43;;;;;;;22.90;7.25;;;25.20;90.60;;;;;;4245933;27;20057;-52
2023/09/11 08:09:46;;;;;;;19.52;7.75;;;25.10;90.80;;;;;;4247044;27;20044;-53
2023/09/11 08:11:49;;;;;;;23.65;7.43;;;25.10;90.80;;;;;;4246819;28;20134;-53
2023/09/11 08:13:53;;;;;;;17.50;5.60;;;25.10;90.90;;;;;;4247042;28;20443;-52
2023/09/11 08:15:55;;;;;;;19.15;7.10;;;25.10;90.90;;;;;;4245982;28;20061;-54
2023/09/11 08:17:57;;;;;;;16.60;6.60;;;25.10;90.80;;;;;;4245141;28;20066;-52
2023/09/11 08:20:01;;;;;;;24.38;8.25;;;25.10;90.60;;;;;;4247030;28;20043;-53
2023/09/11 08:22:03;;;;;;;23.25;6.75;;;25.20;90.60;;;;;;4246705;28;20042;-53
2023/09/11 08:24:06;;;;;;;12.55;5.28;;;25.30;90.50;;;;;;4246650;28;20104;-53
2023/09/11 08:26:08;;;;;;;13.52;5.07;;;25.40;90.50;;;;;;4246004;28;20433;-53
2023/09/11 08:28:12;;;;;;;17.05;6.03;;;25.50;90.40;;;;;;4228169;28;20126;-53
2023/09/11 08:30:15;;;;;;;21.38;6.10;;;25.50;90.30;;;;;;4249117;27;20047;-52
2023/09/11 08:32:17;;;;;;;10.82;5.38;;;25.60;90.10;;;;;;4250431;27;20039;-54
2023/09/11 08:34:19;;;;;;;23.10;7.13;;;25.50;90.20;;;;;;4239482;27;20071;-54
2023/09/11 08:36:23;;;;;;;26.45;6.78;;;25.50;90.20;;;;;;4250272;27;20130;-51
2023/09/11 08:38:25;;;;;;;35.35;7.07;;;25.50;90.20;;;;;;4250682;27;20039;-52
2023/09/11 08:40:30;;;;;;;34.15;7.60;;;25.50;90.20;;;;;;4251075;27;20071;-53
2023/09/11 08:42:33;;;;;;;21.70;6.35;;;25.50;90.20;;;;;;4250944;27;20469;-53
2023/09/11 08:44:35;;;;;;;21.30;7.13;;;25.50;90.20;;;;;;4250961;27;20484;-52
2023/09/11 08:46:46;;;;;;;21.30;6.18;;;25.60;90.20;;;;;;4250617;27;20139;-53
2023/09/11 08:48:53;;;;;;;27.63;7.70;;;25.60;90.20;;;;;;4250602;27;20055;-52
2023/09/11 08:51:00;;;;;;;22.38;7.95;;;25.70;90.10;;;;;;4250568;27;20121;-53
2023/09/11 08:53:04;;;;;;;23.73;6.68;;;25.70;89.90;;;;;;4249869;27;20492;-54
2023/09/11 08:55:09;;;;;;;14.43;6.15;;;25.80;90.00;;;;;;4250393;27;20046;-53
2023/09/11 08:57:14;;;;;;;16.08;6.05;;;25.80;90.00;;;;;;4249038;27;20054;-53
2023/09/11 08:59:21;;;;;;;21.25;6.38;;;25.80;90.00;;;;;;4249744;27;20811;-52
2023/09/11 09:01:25;;;;;;;25.58;7.13;;;25.90;89.90;;;;;;4249774;27;20048;-52
2023/09/11 09:03:28;;;;;;;15.75;6.28;;;26.00;89.40;;;;;;4249471;27;20067;-54
2023/09/11 09:05:32;;;;;;;18.63;5.93;;;26.00;88.70;;;;;;4249901;27;20063;-53
2023/09/11 09:07:36;;;;;;;17.23;5.07;;;26.00;88.90;;;;;;4248351;27;20428;-54
2023/09/11 09:09:41;;;;;;;33.75;7.45;;;25.90;88.80;;;;;;4231099;28;20290;-53
2023/09/11 09:11:48;;;;;;;38.08;6.78;;;26.00;88.80;;;;;;4249959;27;20080;-54
2023/09/11 09:13:50;;;;;;;21.33;5.53;;;26.00;88.80;;;;;;4250677;27;20038;-54
2023/09/11 09:15:52;;;;;;;10.80;4.82;;;26.00;88.10;;;;;;4251311;27;20070;-58
2023/09/11 09:17:54;;;;;;;16.83;5.50;;;26.00;88.20;;;;;;4249470;27;20047;-53
2023/09/11 09:19:57;;;;;;;14.63;5.10;;;26.00;88.20;;;;;;4250197;27;20043;-54
2023/09/11 09:22:10;;;;;;;14.90;5.25;;;26.10;88.10;;;;;;4249386;27;20047;-53
2023/09/11 09:24:12;;;;;;;8.52;4.43;;;26.20;87.50;;;;;;4230793;28;20593;-54
2023/09/11 09:26:16;;;;;;;34.72;7.75;;;26.30;87.90;;;;;;4239271;27;20046;-54
2023/09/11 09:28:28;;;;;;;24.25;6.22;;;26.50;87.60;;;;;;4231279;28;20048;-52
2023/09/11 09:30:33;;;;;;;21.67;5.80;;;26.60;86.80;;;;;;4249063;27;20070;-53
2023/09/11 09:32:35;;;;;;;19.15;5.90;;;26.60;87.00;;;;;;4249214;27;20039;-53
2023/09/11 09:34:42;;;;;;;14.88;5.30;;;26.60;87.50;;;;;;4248892;27;20070;-54
2023/09/11 09:36:48;;;;;;;10.52;4.97;;;26.70;86.90;;;;;;4247492;27;20125;-54
2023/09/11 09:38:51;;;;;;;14.43;4.85;;;26.80;86.70;;;;;;4249242;27;20051;-54
2023/09/11 09:40:54;;;;;;;9.95;4.20;;;26.80;86.70;;;;;;4248043;27;20123;-54
2023/09/11 09:42:59;;;;;;;13.50;4.88;;;26.90;86.70;;;;;;4248927;27;20401;-53
2023/09/11 09:45:02;;;;;;;22.05;5.88;;;26.80;86.60;;;;;;4249128;27;20074;-54
2023/09/11 09:47:07;;;;;;;16.58;6.43;;;26.70;87.80;;;;;;4247799;27;20149;-54
2023/09/11 09:49:11;;;;;;;16.77;5.85;;;26.80;88.00;;;;;;4248820;27;20051;-53
2023/09/11 09:51:15;;;;;;;11.73;5.32;;;26.80;88.30;;;;;;4248438;27;20205;-54
2023/09/11 09:53:22;;;;;;;15.50;5.80;;;26.70;88.50;;;;;;4249067;27;20039;-54
2023/09/11 09:55:26;;;;;;;13.73;4.97;;;26.60;88.50;;;;;;4248721;27;20504;-54
2023/09/11 09:57:29;;;;;;;11.70;4.47;;;26.60;88.80;;;;;;4247575;27;20430;-54
2023/09/11 09:59:32;;;;;;;12.68;5.65;;;26.60;89.10;;;;;;4248940;27;20128;-53
2023/09/11 10:01:44;;;;;;;10.50;4.80;;;26.60;89.00;;;;;;4248335;27;20050;-54
2023/09/11 10:03:48;;;;;;;8.70;4.55;;;26.50;88.50;;;;;;4248775;27;20446;-53
2023/09/11 10:05:51;;;;;;;19.15;5.70;;;26.50;88.80;;;;;;4248465;27;20122;-53
2023/09/11 10:07:58;;;;;;;13.52;5.20;;;26.50;88.70;;;;;;4247656;27;20130;-53
2023/09/11 10:10:19;;;;;;;18.38;5.50;;;26.60;89.10;;;;;;4248595;27;20057;-52
2023/09/11 10:12:21;;;;;;;9.95;4.95;;;26.70;88.40;;;;;;4246862;27;20527;-54
2023/09/11 10:14:24;;;;;;;12.90;4.72;;;26.70;88.70;;;;;;4248697;27;20560;-54
2023/09/11 10:16:30;;;;;;;13.05;4.93;;;26.70;88.70;;;;;;4241893;27;20040;-53
2023/09/11 10:18:34;;;;;;;9.05;4.45;;;26.90;88.50;;;;;;4242972;27;20047;-54
2023/09/11 10:20:37;;;;;;;8.63;4.75;;;26.90;88.50;;;;;;4248560;27;20058;-53
2023/09/11 10:22:39;;;;;;;8.05;3.47;;;27.00;88.50;;;;;;4248402;27;20051;-53
2023/09/11 10:24:41;;;;;;;15.40;5.28;;;27.10;88.20;;;;;;4248465;27;20151;-53
2023/09/11 10:26:46;;;;;;;11.52;4.53;;;27.10;88.20;;;;;;4247325;27;20112;-54
2023/09/11 10:28:51;;;;;;;9.18;4.70;;;27.00;88.70;;;;;;4247991;27;20070;-54
2023/09/11 10:31:11;;;;;;;9.68;4.65;;;27.10;89.00;;;;;;4247860;27;20130;-55
2023/09/11 10:33:23;;;;;;;10.93;4.25;;;27.00;88.50;;;;;;4248016;27;20042;-54
2023/09/11 10:35:29;;;;;;;10.18;4.05;;;26.80;88.20;;;;;;4248377;27;20047;-54
2023/09/11 10:37:34;;;;;;;10.65;4.40;;;26.90;88.60;;;;;;4246693;27;20404;-53